Sevier River near Sigurd




Date Battery Voltage (V) Panel Temperature (degC) River Stage (ft) River Discharge (cfs)
07/01/2018 13.31 23.28 0.39 3
07/02/2018 13.28 24.09 0.54 9
07/03/2018 13.31 27.32 1.53 70
07/04/2018 13.30 24.78 1.38 54
07/05/2018 13.25 24.42 1.24 42
07/06/2018 13.27 27.75 1.34 50
07/07/2018 13.30 27.54 1.46 61
07/08/2018 13.21 26.43 1.53 69
07/09/2018 13.20 27.74 1.54 70
07/10/2018 13.26 28.01 1.62 79
07/11/2018 13.22 25.28 1.69 87
07/12/2018 13.14 23.55 1.50 65
07/13/2018 13.27 24.56 1.50 65
07/14/2018 13.17 23.93 1.49 65
07/15/2018 13.27 27.19 2.12 153
07/16/2018 13.29 28.10 1.95 121
07/17/2018 13.30 28.91 1.56 73
07/18/2018 13.28 29.14 1.68 88
07/19/2018 13.11 24.71 1.92 121
07/20/2018 13.25 28.41 1.37 53
07/21/2018 13.20 27.14 1.35 51
07/22/2018 13.26 27.36 1.29 46
07/23/2018 13.29 27.89 1.26 44
07/24/2018 13.28 27.33 1.34 50
07/25/2018 13.29 28.65 1.53 69
07/26/2018 13.26 28.64 1.61 77
07/27/2018 13.27 27.86 1.60 76
07/28/2018 13.27 26.64 1.62 79
07/29/2018 13.25 28.52 1.52 67
07/30/2018 13.28 26.02 1.40 55
07/31/2018 13.26 26.48 1.43 59
Average 67
Maximum 153
Minimum 3
Total Volume (AF) 4,107